Mahnomen, Minnesota
Current Conditions -  °F | °C
As of 1:35 AM on Wednesday 22 Oct 2014 (Local Time) from K3N8 Reporting Station
Clear Clear  
Wind Chill: 51°   Ceiling: Unl
Heat Index: 51°   Visibility: 10mi
Dew Point: 40°   Wind: 18mph
Humidity: 66%   Direction: 150°SSE
Pressure: 29.95"   Gusts: 26mph
Location:  47.32°N, 95.97°W
Report Text: K3N8 220635Z AUTO 15016G23KT 10SM CLR 11/05 A2995 RMK AO2 T01070045
Loading
Personal Weather Stations






























Interactive Weather Map
Tropical Storm Tracking
New forecast layout! Learn more

10-Day Weather Forecast

Advertisements
Track Severe Weather on mobile